createdAt,value
2023-10-29T00:17:50.428Z,63
2023-10-29T00:47:51.231Z,62.9
2023-10-29T01:17:51.848Z,63.3
2023-10-29T01:47:52.461Z,63
2023-10-29T02:17:53.228Z,63.6
2023-10-29T03:18:04.951Z,64.7
2023-10-29T04:18:16.330Z,65.8
2023-10-29T04:48:17.089Z,66.2
2023-10-29T05:18:17.871Z,67.1
2023-10-29T05:48:19.144Z,67.4
2023-10-29T06:18:19.963Z,67.5
2023-10-29T06:48:20.866Z,67.6
2023-10-29T07:18:21.567Z,67.8
2023-10-29T07:48:22.216Z,67.9
2023-10-29T08:18:23.206Z,67.7
2023-10-29T08:48:24.015Z,63.8
2023-10-29T09:18:24.891Z,61
2023-10-29T09:48:30.432Z,63.6
2023-10-29T10:48:41.848Z,63
2023-10-29T11:48:53.257Z,63.3
2023-10-29T12:18:55.586Z,63.3
2023-10-29T12:48:58.036Z,64.4
2023-10-29T13:18:58.482Z,65.9
2023-10-29T13:48:59.250Z,65.1
2023-10-29T14:18:59.687Z,64.3
2023-10-29T14:49:00.298Z,63.9
2023-10-29T15:19:02.460Z,63.7
2023-10-29T15:49:07.141Z,63.8
2023-10-29T16:19:07.572Z,63.5
2023-10-29T17:19:18.780Z,63.2
2023-10-29T18:49:40.118Z,63.1
2023-10-29T19:19:40.953Z,63
2023-10-29T19:49:41.375Z,63
2023-10-29T20:19:42.211Z,62.9
2023-10-29T20:49:42.648Z,62.8
2023-10-29T21:19:43.311Z,62.8
2023-10-29T21:49:43.743Z,62.9
2023-10-29T22:19:44.167Z,62.8
2023-10-29T22:49:44.562Z,62.8
2023-10-29T23:19:44.960Z,62.8
